sensor_id;sensor_type;location;lat;lon;timestamp;P1;durP1;ratioP1;P2;durP2;ratioP2
20986;SDS011;10652;50.306;8.570;2024-02-21T00:00:14;10.95;;;4.28;;
20986;SDS011;10652;50.306;8.570;2024-02-21T00:04:17;9.98;;;3.45;;
20986;SDS011;10652;50.306;8.570;2024-02-21T00:08:19;10.93;;;3.88;;
20986;SDS011;10652;50.306;8.570;2024-02-21T00:12:21;6.95;;;3.30;;
20986;SDS011;10652;50.306;8.570;2024-02-21T00:16:23;7.78;;;3.10;;
20986;SDS011;10652;50.306;8.570;2024-02-21T00:20:25;8.82;;;2.85;;
20986;SDS011;10652;50.306;8.570;2024-02-21T00:24:28;9.15;;;3.00;;
20986;SDS011;10652;50.306;8.570;2024-02-21T00:28:30;9.32;;;3.47;;
20986;SDS011;10652;50.306;8.570;2024-02-21T00:32:32;7.32;;;3.72;;
20986;SDS011;10652;50.306;8.570;2024-02-21T00:36:36;10.38;;;4.03;;
20986;SDS011;10652;50.306;8.570;2024-02-21T00:40:38;9.85;;;3.33;;
20986;SDS011;10652;50.306;8.570;2024-02-21T00:44:40;11.13;;;3.83;;
20986;SDS011;10652;50.306;8.570;2024-02-21T00:48:42;9.88;;;3.30;;
20986;SDS011;10652;50.306;8.570;2024-02-21T00:52:44;6.68;;;3.13;;
20986;SDS011;10652;50.306;8.570;2024-02-21T00:56:47;8.95;;;2.97;;
20986;SDS011;10652;50.306;8.570;2024-02-21T01:00:49;14.57;;;3.90;;
20986;SDS011;10652;50.306;8.570;2024-02-21T01:04:51;8.77;;;3.97;;
20986;SDS011;10652;50.306;8.570;2024-02-21T01:08:53;6.70;;;3.38;;
20986;SDS011;10652;50.306;8.570;2024-02-21T01:12:55;9.90;;;4.07;;
20986;SDS011;10652;50.306;8.570;2024-02-21T01:16:57;8.30;;;3.97;;
20986;SDS011;10652;50.306;8.570;2024-02-21T01:20:59;9.77;;;4.15;;
20986;SDS011;10652;50.306;8.570;2024-02-21T01:25:02;13.43;;;4.82;;
20986;SDS011;10652;50.306;8.570;2024-02-21T01:29:04;9.85;;;4.40;;
20986;SDS011;10652;50.306;8.570;2024-02-21T01:33:06;9.57;;;4.60;;
20986;SDS011;10652;50.306;8.570;2024-02-21T01:37:08;11.80;;;3.90;;
20986;SDS011;10652;50.306;8.570;2024-02-21T01:41:10;9.57;;;3.97;;
20986;SDS011;10652;50.306;8.570;2024-02-21T01:45:12;12.13;;;4.07;;
20986;SDS011;10652;50.306;8.570;2024-02-21T01:49:19;12.23;;;4.30;;
20986;SDS011;10652;50.306;8.570;2024-02-21T01:53:23;11.05;;;4.40;;
20986;SDS011;10652;50.306;8.570;2024-02-21T01:57:29;10.63;;;4.47;;
20986;SDS011;10652;50.306;8.570;2024-02-21T02:01:32;9.65;;;4.25;;
20986;SDS011;10652;50.306;8.570;2024-02-21T02:05:34;11.73;;;4.68;;
20986;SDS011;10652;50.306;8.570;2024-02-21T02:09:36;8.45;;;4.25;;
20986;SDS011;10652;50.306;8.570;2024-02-21T02:13:38;11.45;;;4.78;;
20986;SDS011;10652;50.306;8.570;2024-02-21T02:17:41;28.55;;;10.60;;
20986;SDS011;10652;50.306;8.570;2024-02-21T02:21:51;10.05;;;4.20;;
20986;SDS011;10652;50.306;8.570;2024-02-21T02:25:58;9.43;;;4.10;;
20986;SDS011;10652;50.306;8.570;2024-02-21T02:30:01;11.70;;;4.10;;
20986;SDS011;10652;50.306;8.570;2024-02-21T02:34:03;9.52;;;4.15;;
20986;SDS011;10652;50.306;8.570;2024-02-21T02:38:05;7.55;;;3.65;;
20986;SDS011;10652;50.306;8.570;2024-02-21T02:42:07;10.45;;;4.05;;
20986;SDS011;10652;50.306;8.570;2024-02-21T02:46:10;14.30;;;4.05;;
20986;SDS011;10652;50.306;8.570;2024-02-21T02:50:12;9.32;;;3.58;;
20986;SDS011;10652;50.306;8.570;2024-02-21T02:54:15;8.45;;;3.92;;
20986;SDS011;10652;50.306;8.570;2024-02-21T02:58:17;8.30;;;3.63;;
20986;SDS011;10652;50.306;8.570;2024-02-21T03:02:19;9.48;;;3.60;;
20986;SDS011;10652;50.306;8.570;2024-02-21T03:06:21;7.93;;;3.70;;
20986;SDS011;10652;50.306;8.570;2024-02-21T03:10:23;8.93;;;3.53;;
20986;SDS011;10652;50.306;8.570;2024-02-21T03:14:26;8.13;;;3.55;;
20986;SDS011;10652;50.306;8.570;2024-02-21T03:18:28;6.38;;;3.85;;
20986;SDS011;10652;50.306;8.570;2024-02-21T03:22:31;8.82;;;3.70;;
20986;SDS011;10652;50.306;8.570;2024-02-21T03:26:34;10.98;;;3.92;;
20986;SDS011;10652;50.306;8.570;2024-02-21T03:30:36;9.45;;;3.50;;
20986;SDS011;10652;50.306;8.570;2024-02-21T03:34:38;10.93;;;4.15;;
20986;SDS011;10652;50.306;8.570;2024-02-21T03:38:40;8.60;;;3.72;;
20986;SDS011;10652;50.306;8.570;2024-02-21T03:42:43;10.55;;;3.85;;
20986;SDS011;10652;50.306;8.570;2024-02-21T03:46:45;10.35;;;3.78;;
20986;SDS011;10652;50.306;8.570;2024-02-21T03:50:47;11.30;;;3.58;;
20986;SDS011;10652;50.306;8.570;2024-02-21T03:54:49;8.20;;;3.47;;
20986;SDS011;10652;50.306;8.570;2024-02-21T03:58:51;10.93;;;3.67;;
20986;SDS011;10652;50.306;8.570;2024-02-21T04:02:54;8.93;;;3.20;;
20986;SDS011;10652;50.306;8.570;2024-02-21T04:06:57;9.57;;;3.63;;
20986;SDS011;10652;50.306;8.570;2024-02-21T04:11:00;7.50;;;3.33;;
20986;SDS011;10652;50.306;8.570;2024-02-21T04:15:02;8.98;;;3.95;;
20986;SDS011;10652;50.306;8.570;2024-02-21T04:19:04;8.48;;;3.53;;
20986;SDS011;10652;50.306;8.570;2024-02-21T04:23:06;8.88;;;4.00;;
20986;SDS011;10652;50.306;8.570;2024-02-21T04:27:08;10.80;;;4.38;;
20986;SDS011;10652;50.306;8.570;2024-02-21T04:31:10;9.77;;;3.90;;
20986;SDS011;10652;50.306;8.570;2024-02-21T04:35:12;10.73;;;4.70;;
20986;SDS011;10652;50.306;8.570;2024-02-21T04:39:14;9.30;;;3.50;;
20986;SDS011;10652;50.306;8.570;2024-02-21T04:43:16;9.88;;;3.97;;
20986;SDS011;10652;50.306;8.570;2024-02-21T04:47:19;10.15;;;3.90;;
20986;SDS011;10652;50.306;8.570;2024-02-21T04:51:25;10.25;;;4.30;;
20986;SDS011;10652;50.306;8.570;2024-02-21T04:55:27;7.47;;;4.05;;
20986;SDS011;10652;50.306;8.570;2024-02-21T04:59:29;7.05;;;3.78;;
20986;SDS011;10652;50.306;8.570;2024-02-21T05:03:31;7.65;;;4.03;;
20986;SDS011;10652;50.306;8.570;2024-02-21T05:07:34;10.95;;;4.22;;
20986;SDS011;10652;50.306;8.570;2024-02-21T05:11:37;11.60;;;3.63;;
20986;SDS011;10652;50.306;8.570;2024-02-21T05:15:42;10.85;;;3.80;;
20986;SDS011;10652;50.306;8.570;2024-02-21T05:19:44;10.07;;;3.90;;
20986;SDS011;10652;50.306;8.570;2024-02-21T05:23:46;8.45;;;3.70;;
20986;SDS011;10652;50.306;8.570;2024-02-21T05:27:50;8.48;;;3.67;;
20986;SDS011;10652;50.306;8.570;2024-02-21T05:31:55;9.87;;;3.60;;
20986;SDS011;10652;50.306;8.570;2024-02-21T05:35:59;9.13;;;3.70;;
20986;SDS011;10652;50.306;8.570;2024-02-21T05:40:01;9.23;;;3.65;;
20986;SDS011;10652;50.306;8.570;2024-02-21T05:44:03;7.50;;;3.58;;
20986;SDS011;10652;50.306;8.570;2024-02-21T05:48:06;11.73;;;3.65;;
20986;SDS011;10652;50.306;8.570;2024-02-21T05:52:08;9.45;;;3.65;;
20986;SDS011;10652;50.306;8.570;2024-02-21T05:56:10;13.05;;;3.80;;
20986;SDS011;10652;50.306;8.570;2024-02-21T06:00:13;9.13;;;4.50;;
20986;SDS011;10652;50.306;8.570;2024-02-21T06:04:16;9.55;;;3.40;;
20986;SDS011;10652;50.306;8.570;2024-02-21T06:08:19;10.00;;;3.83;;
20986;SDS011;10652;50.306;8.570;2024-02-21T06:12:22;9.45;;;3.80;;
20986;SDS011;10652;50.306;8.570;2024-02-21T06:16:24;10.38;;;3.75;;
20986;SDS011;10652;50.306;8.570;2024-02-21T06:20:26;9.52;;;4.13;;
20986;SDS011;10652;50.306;8.570;2024-02-21T06:24:28;13.10;;;4.10;;
20986;SDS011;10652;50.306;8.570;2024-02-21T06:28:30;8.43;;;3.65;;
20986;SDS011;10652;50.306;8.570;2024-02-21T06:32:32;12.35;;;4.15;;
20986;SDS011;10652;50.306;8.570;2024-02-21T06:36:34;10.60;;;3.90;;
20986;SDS011;10652;50.306;8.570;2024-02-21T06:40:36;11.02;;;4.75;;
20986;SDS011;10652;50.306;8.570;2024-02-21T06:44:41;9.35;;;3.95;;
20986;SDS011;10652;50.306;8.570;2024-02-21T06:48:43;12.23;;;4.68;;
20986;SDS011;10652;50.306;8.570;2024-02-21T06:52:48;12.52;;;4.72;;
20986;SDS011;10652;50.306;8.570;2024-02-21T06:56:50;10.40;;;4.35;;
20986;SDS011;10652;50.306;8.570;2024-02-21T07:00:53;13.57;;;4.55;;
20986;SDS011;10652;50.306;8.570;2024-02-21T07:04:55;12.40;;;4.68;;
20986;SDS011;10652;50.306;8.570;2024-02-21T07:08:57;12.80;;;5.07;;
20986;SDS011;10652;50.306;8.570;2024-02-21T07:12:59;10.40;;;4.55;;
20986;SDS011;10652;50.306;8.570;2024-02-21T07:17:02;11.32;;;3.90;;
20986;SDS011;10652;50.306;8.570;2024-02-21T07:21:04;8.00;;;4.47;;
20986;SDS011;10652;50.306;8.570;2024-02-21T07:25:06;8.18;;;4.38;;
20986;SDS011;10652;50.306;8.570;2024-02-21T07:29:09;9.20;;;4.07;;
20986;SDS011;10652;50.306;8.570;2024-02-21T07:33:11;10.35;;;4.05;;
20986;SDS011;10652;50.306;8.570;2024-02-21T07:37:13;8.70;;;3.97;;
20986;SDS011;10652;50.306;8.570;2024-02-21T07:41:15;7.57;;;3.38;;
20986;SDS011;10652;50.306;8.570;2024-02-21T07:45:17;8.38;;;3.60;;
20986;SDS011;10652;50.306;8.570;2024-02-21T07:49:25;7.80;;;3.60;;
20986;SDS011;10652;50.306;8.570;2024-02-21T07:53:27;10.57;;;3.60;;
20986;SDS011;10652;50.306;8.570;2024-02-21T07:57:30;7.15;;;2.88;;
20986;SDS011;10652;50.306;8.570;2024-02-21T08:01:32;8.73;;;3.13;;
20986;SDS011;10652;50.306;8.570;2024-02-21T08:05:34;10.20;;;3.40;;
20986;SDS011;10652;50.306;8.570;2024-02-21T08:09:39;10.80;;;3.13;;
20986;SDS011;10652;50.306;8.570;2024-02-21T08:13:42;7.10;;;3.03;;
20986;SDS011;10652;50.306;8.570;2024-02-21T08:17:44;7.95;;;3.63;;
20986;SDS011;10652;50.306;8.570;2024-02-21T08:21:46;8.85;;;3.33;;
20986;SDS011;10652;50.306;8.570;2024-02-21T08:25:48;6.85;;;2.95;;
20986;SDS011;10652;50.306;8.570;2024-02-21T08:29:51;10.40;;;3.42;;
20986;SDS011;10652;50.306;8.570;2024-02-21T08:33:53;6.63;;;2.75;;
20986;SDS011;10652;50.306;8.570;2024-02-21T08:37:55;6.57;;;3.10;;
20986;SDS011;10652;50.306;8.570;2024-02-21T08:41:57;9.32;;;3.28;;
20986;SDS011;10652;50.306;8.570;2024-02-21T08:46:00;9.07;;;2.92;;
20986;SDS011;10652;50.306;8.570;2024-02-21T08:50:02;7.45;;;2.80;;
20986;SDS011;10652;50.306;8.570;2024-02-21T08:58:21;7.82;;;2.60;;
20986;SDS011;10652;50.306;8.570;2024-02-21T09:02:25;10.15;;;4.50;;
20986;SDS011;10652;50.306;8.570;2024-02-21T09:06:27;8.57;;;3.08;;
20986;SDS011;10652;50.306;8.570;2024-02-21T09:10:30;7.25;;;2.70;;
20986;SDS011;10652;50.306;8.570;2024-02-21T09:14:33;8.38;;;4.15;;
20986;SDS011;10652;50.306;8.570;2024-02-21T09:18:36;7.57;;;3.40;;
20986;SDS011;10652;50.306;8.570;2024-02-21T09:22:38;8.13;;;3.30;;
20986;SDS011;10652;50.306;8.570;2024-02-21T09:26:41;7.88;;;3.13;;
20986;SDS011;10652;50.306;8.570;2024-02-21T09:30:45;7.28;;;2.90;;
20986;SDS011;10652;50.306;8.570;2024-02-21T09:34:47;6.78;;;2.97;;
20986;SDS011;10652;50.306;8.570;2024-02-21T09:38:50;8.30;;;3.50;;
20986;SDS011;10652;50.306;8.570;2024-02-21T09:42:55;7.60;;;3.00;;
20986;SDS011;10652;50.306;8.570;2024-02-21T09:47:22;7.67;;;3.50;;
20986;SDS011;10652;50.306;8.570;2024-02-21T09:51:33;6.90;;;3.15;;
20986;SDS011;10652;50.306;8.570;2024-02-21T09:55:36;7.18;;;3.10;;
20986;SDS011;10652;50.306;8.570;2024-02-21T09:59:42;9.27;;;3.22;;
20986;SDS011;10652;50.306;8.570;2024-02-21T10:03:45;7.32;;;3.08;;
20986;SDS011;10652;50.306;8.570;2024-02-21T10:07:48;9.65;;;3.35;;
20986;SDS011;10652;50.306;8.570;2024-02-21T10:11:51;7.68;;;3.53;;
20986;SDS011;10652;50.306;8.570;2024-02-21T10:16:03;8.98;;;3.47;;
20986;SDS011;10652;50.306;8.570;2024-02-21T10:20:07;6.63;;;3.45;;
20986;SDS011;10652;50.306;8.570;2024-02-21T10:24:12;10.93;;;3.70;;
20986;SDS011;10652;50.306;8.570;2024-02-21T10:28:14;6.88;;;3.80;;
20986;SDS011;10652;50.306;8.570;2024-02-21T10:32:18;7.40;;;3.85;;
20986;SDS011;10652;50.306;8.570;2024-02-21T10:36:20;10.80;;;4.63;;
20986;SDS011;10652;50.306;8.570;2024-02-21T10:40:26;11.63;;;5.05;;
20986;SDS011;10652;50.306;8.570;2024-02-21T10:44:33;9.85;;;5.35;;
20986;SDS011;10652;50.306;8.570;2024-02-21T10:48:43;13.80;;;5.43;;
20986;SDS011;10652;50.306;8.570;2024-02-21T10:57:02;9.43;;;5.05;;
20986;SDS011;10652;50.306;8.570;2024-02-21T11:01:07;8.77;;;4.18;;
20986;SDS011;10652;50.306;8.570;2024-02-21T11:05:10;7.00;;;4.63;;
20986;SDS011;10652;50.306;8.570;2024-02-21T11:09:13;9.32;;;4.60;;
20986;SDS011;10652;50.306;8.570;2024-02-21T11:13:15;6.90;;;3.70;;
20986;SDS011;10652;50.306;8.570;2024-02-21T11:17:18;10.43;;;4.10;;
20986;SDS011;10652;50.306;8.570;2024-02-21T11:21:32;9.30;;;4.07;;
20986;SDS011;10652;50.306;8.570;2024-02-21T11:25:35;8.93;;;3.88;;
20986;SDS011;10652;50.306;8.570;2024-02-21T11:29:44;12.23;;;4.65;;
20986;SDS011;10652;50.306;8.570;2024-02-21T11:33:46;9.93;;;4.10;;
20986;SDS011;10652;50.306;8.570;2024-02-21T11:37:49;7.35;;;4.20;;
20986;SDS011;10652;50.306;8.570;2024-02-21T11:42:01;8.55;;;3.88;;
20986;SDS011;10652;50.306;8.570;2024-02-21T11:46:04;9.02;;;3.67;;
20986;SDS011;10652;50.306;8.570;2024-02-21T11:50:09;7.40;;;3.20;;
20986;SDS011;10652;50.306;8.570;2024-02-21T11:54:13;8.00;;;2.80;;
20986;SDS011;10652;50.306;8.570;2024-02-21T11:58:18;9.63;;;3.55;;
20986;SDS011;10652;50.306;8.570;2024-02-21T12:02:20;6.68;;;3.00;;
20986;SDS011;10652;50.306;8.570;2024-02-21T12:06:22;9.35;;;3.20;;
20986;SDS011;10652;50.306;8.570;2024-02-21T12:10:28;8.25;;;3.10;;
20986;SDS011;10652;50.306;8.570;2024-02-21T12:14:31;7.80;;;2.97;;
20986;SDS011;10652;50.306;8.570;2024-02-21T12:18:34;7.05;;;2.53;;
20986;SDS011;10652;50.306;8.570;2024-02-21T12:22:36;8.13;;;2.60;;
20986;SDS011;10652;50.306;8.570;2024-02-21T12:26:43;6.78;;;2.75;;
20986;SDS011;10652;50.306;8.570;2024-02-21T12:30:45;4.10;;;2.42;;
20986;SDS011;10652;50.306;8.570;2024-02-21T12:34:47;7.68;;;2.60;;
20986;SDS011;10652;50.306;8.570;2024-02-21T12:38:55;8.18;;;2.55;;
20986;SDS011;10652;50.306;8.570;2024-02-21T12:43:00;6.22;;;2.45;;
20986;SDS011;10652;50.306;8.570;2024-02-21T12:47:04;5.40;;;2.50;;
20986;SDS011;10652;50.306;8.570;2024-02-21T12:51:07;5.55;;;2.30;;
20986;SDS011;10652;50.306;8.570;2024-02-21T12:55:09;7.72;;;2.50;;
20986;SDS011;10652;50.306;8.570;2024-02-21T12:59:12;8.13;;;2.55;;
20986;SDS011;10652;50.306;8.570;2024-02-21T13:03:16;7.45;;;2.50;;
20986;SDS011;10652;50.306;8.570;2024-02-21T13:07:18;8.80;;;2.38;;
20986;SDS011;10652;50.306;8.570;2024-02-21T13:11:20;5.30;;;2.30;;
20986;SDS011;10652;50.306;8.570;2024-02-21T13:15:23;8.40;;;2.65;;
20986;SDS011;10652;50.306;8.570;2024-02-21T13:19:25;4.38;;;1.83;;
20986;SDS011;10652;50.306;8.570;2024-02-21T13:23:27;6.32;;;2.20;;
20986;SDS011;10652;50.306;8.570;2024-02-21T13:27:29;9.27;;;2.20;;
20986;SDS011;10652;50.306;8.570;2024-02-21T13:31:31;5.45;;;2.10;;
20986;SDS011;10652;50.306;8.570;2024-02-21T13:35:34;7.55;;;2.00;;
20986;SDS011;10652;50.306;8.570;2024-02-21T13:39:38;5.72;;;2.40;;
20986;SDS011;10652;50.306;8.570;2024-02-21T13:43:40;6.30;;;2.35;;
20986;SDS011;10652;50.306;8.570;2024-02-21T13:47:43;7.45;;;2.10;;
20986;SDS011;10652;50.306;8.570;2024-02-21T13:51:45;7.60;;;2.25;;
20986;SDS011;10652;50.306;8.570;2024-02-21T13:55:47;4.50;;;2.17;;
20986;SDS011;10652;50.306;8.570;2024-02-21T13:59:49;10.40;;;2.83;;
20986;SDS011;10652;50.306;8.570;2024-02-21T14:03:52;7.00;;;2.65;;
20986;SDS011;10652;50.306;8.570;2024-02-21T14:07:54;8.70;;;2.78;;
20986;SDS011;10652;50.306;8.570;2024-02-21T14:11:57;7.93;;;2.70;;
20986;SDS011;10652;50.306;8.570;2024-02-21T14:15:59;7.90;;;2.67;;
20986;SDS011;10652;50.306;8.570;2024-02-21T14:20:02;8.77;;;2.35;;
20986;SDS011;10652;50.306;8.570;2024-02-21T14:24:06;6.28;;;2.25;;
20986;SDS011;10652;50.306;8.570;2024-02-21T14:28:09;9.82;;;2.42;;
20986;SDS011;10652;50.306;8.570;2024-02-21T14:32:11;6.38;;;2.50;;
20986;SDS011;10652;50.306;8.570;2024-02-21T14:36:15;6.88;;;2.35;;
20986;SDS011;10652;50.306;8.570;2024-02-21T14:40:17;7.32;;;2.50;;
20986;SDS011;10652;50.306;8.570;2024-02-21T14:44:21;7.63;;;2.40;;
20986;SDS011;10652;50.306;8.570;2024-02-21T14:48:23;8.75;;;2.65;;
20986;SDS011;10652;50.306;8.570;2024-02-21T14:52:25;6.35;;;2.20;;
20986;SDS011;10652;50.306;8.570;2024-02-21T14:56:29;6.35;;;2.00;;
20986;SDS011;10652;50.306;8.570;2024-02-21T15:00:33;4.82;;;1.80;;
20986;SDS011;10652;50.306;8.570;2024-02-21T15:04:35;5.82;;;2.08;;
20986;SDS011;10652;50.306;8.570;2024-02-21T15:08:37;7.15;;;1.92;;
20986;SDS011;10652;50.306;8.570;2024-02-21T15:12:39;7.90;;;1.95;;
20986;SDS011;10652;50.306;8.570;2024-02-21T15:16:42;8.57;;;2.15;;
20986;SDS011;10652;50.306;8.570;2024-02-21T15:20:44;8.93;;;2.05;;
20986;SDS011;10652;50.306;8.570;2024-02-21T15:24:46;5.13;;;1.67;;
20986;SDS011;10652;50.306;8.570;2024-02-21T15:28:50;7.93;;;2.00;;
20986;SDS011;10652;50.306;8.570;2024-02-21T15:32:52;7.43;;;1.90;;
20986;SDS011;10652;50.306;8.570;2024-02-21T15:36:57;5.82;;;2.00;;
20986;SDS011;10652;50.306;8.570;2024-02-21T15:40:59;6.25;;;1.85;;
20986;SDS011;10652;50.306;8.570;2024-02-21T15:45:01;9.90;;;2.03;;
20986;SDS011;10652;50.306;8.570;2024-02-21T15:49:06;6.97;;;1.70;;
20986;SDS011;10652;50.306;8.570;2024-02-21T15:53:09;9.30;;;1.85;;
20986;SDS011;10652;50.306;8.570;2024-02-21T15:57:12;6.32;;;1.75;;
20986;SDS011;10652;50.306;8.570;2024-02-21T16:01:14;7.63;;;1.83;;
20986;SDS011;10652;50.306;8.570;2024-02-21T16:05:17;4.32;;;1.83;;
20986;SDS011;10652;50.306;8.570;2024-02-21T16:09:19;6.57;;;1.80;;
20986;SDS011;10652;50.306;8.570;2024-02-21T16:13:21;4.68;;;1.60;;
20986;SDS011;10652;50.306;8.570;2024-02-21T16:17:23;5.28;;;2.60;;
20986;SDS011;10652;50.306;8.570;2024-02-21T16:21:26;5.40;;;1.80;;
20986;SDS011;10652;50.306;8.570;2024-02-21T16:25:29;6.13;;;2.17;;
20986;SDS011;10652;50.306;8.570;2024-02-21T16:29:31;8.90;;;2.78;;
20986;SDS011;10652;50.306;8.570;2024-02-21T16:33:33;6.07;;;2.13;;
20986;SDS011;10652;50.306;8.570;2024-02-21T16:37:35;7.43;;;2.50;;
20986;SDS011;10652;50.306;8.570;2024-02-21T16:41:39;8.88;;;2.40;;
20986;SDS011;10652;50.306;8.570;2024-02-21T16:45:41;8.35;;;2.35;;
20986;SDS011;10652;50.306;8.570;2024-02-21T16:49:43;6.60;;;2.13;;
20986;SDS011;10652;50.306;8.570;2024-02-21T16:53:46;11.13;;;2.85;;
20986;SDS011;10652;50.306;8.570;2024-02-21T16:57:48;5.82;;;2.00;;
20986;SDS011;10652;50.306;8.570;2024-02-21T17:01:50;6.40;;;2.35;;
20986;SDS011;10652;50.306;8.570;2024-02-21T17:05:54;5.13;;;2.25;;
20986;SDS011;10652;50.306;8.570;2024-02-21T17:10:04;7.78;;;2.20;;
20986;SDS011;10652;50.306;8.570;2024-02-21T17:14:07;8.20;;;3.20;;
20986;SDS011;10652;50.306;8.570;2024-02-21T17:18:09;7.32;;;3.20;;
20986;SDS011;10652;50.306;8.570;2024-02-21T17:22:11;10.27;;;2.50;;
20986;SDS011;10652;50.306;8.570;2024-02-21T17:26:13;7.45;;;2.55;;
20986;SDS011;10652;50.306;8.570;2024-02-21T17:30:16;10.80;;;2.60;;
20986;SDS011;10652;50.306;8.570;2024-02-21T17:34:18;7.40;;;2.60;;
20986;SDS011;10652;50.306;8.570;2024-02-21T17:38:22;7.40;;;2.38;;
20986;SDS011;10652;50.306;8.570;2024-02-21T17:42:27;5.35;;;2.65;;
20986;SDS011;10652;50.306;8.570;2024-02-21T17:46:29;8.60;;;2.70;;
20986;SDS011;10652;50.306;8.570;2024-02-21T17:50:31;5.68;;;2.75;;
20986;SDS011;10652;50.306;8.570;2024-02-21T17:54:33;7.82;;;2.88;;
20986;SDS011;10652;50.306;8.570;2024-02-21T17:58:35;6.47;;;2.78;;
20986;SDS011;10652;50.306;8.570;2024-02-21T18:02:37;8.73;;;2.85;;
20986;SDS011;10652;50.306;8.570;2024-02-21T18:06:40;6.38;;;2.70;;
20986;SDS011;10652;50.306;8.570;2024-02-21T18:10:42;10.23;;;2.70;;
20986;SDS011;10652;50.306;8.570;2024-02-21T18:14:44;7.30;;;2.33;;
20986;SDS011;10652;50.306;8.570;2024-02-21T18:18:46;7.65;;;2.67;;
20986;SDS011;10652;50.306;8.570;2024-02-21T18:22:48;5.60;;;2.05;;
20986;SDS011;10652;50.306;8.570;2024-02-21T18:26:50;7.10;;;2.10;;
20986;SDS011;10652;50.306;8.570;2024-02-21T18:30:53;6.53;;;2.40;;
20986;SDS011;10652;50.306;8.570;2024-02-21T18:34:55;7.60;;;2.60;;
20986;SDS011;10652;50.306;8.570;2024-02-21T18:38:58;7.40;;;2.80;;
20986;SDS011;10652;50.306;8.570;2024-02-21T18:43:00;7.68;;;2.88;;
20986;SDS011;10652;50.306;8.570;2024-02-21T18:47:03;6.28;;;2.25;;
20986;SDS011;10652;50.306;8.570;2024-02-21T18:51:05;7.50;;;2.67;;
20986;SDS011;10652;50.306;8.570;2024-02-21T18:55:07;7.97;;;2.80;;
20986;SDS011;10652;50.306;8.570;2024-02-21T18:59:12;9.55;;;2.20;;
20986;SDS011;10652;50.306;8.570;2024-02-21T19:03:14;8.30;;;2.58;;
20986;SDS011;10652;50.306;8.570;2024-02-21T19:07:16;5.85;;;2.67;;
20986;SDS011;10652;50.306;8.570;2024-02-21T19:11:18;7.10;;;2.28;;
20986;SDS011;10652;50.306;8.570;2024-02-21T19:15:21;7.07;;;2.55;;
20986;SDS011;10652;50.306;8.570;2024-02-21T19:19:23;5.13;;;2.40;;
20986;SDS011;10652;50.306;8.570;2024-02-21T19:23:25;5.82;;;2.30;;
20986;SDS011;10652;50.306;8.570;2024-02-21T19:27:27;8.85;;;2.45;;
20986;SDS011;10652;50.306;8.570;2024-02-21T19:31:29;5.95;;;2.47;;
20986;SDS011;10652;50.306;8.570;2024-02-21T19:35:32;8.50;;;2.60;;
20986;SDS011;10652;50.306;8.570;2024-02-21T19:39:34;6.05;;;2.35;;
20986;SDS011;10652;50.306;8.570;2024-02-21T19:43:36;5.93;;;2.55;;
20986;SDS011;10652;50.306;8.570;2024-02-21T19:47:39;7.22;;;2.60;;
20986;SDS011;10652;50.306;8.570;2024-02-21T19:51:45;11.80;;;3.10;;
20986;SDS011;10652;50.306;8.570;2024-02-21T19:55:48;7.65;;;2.75;;
20986;SDS011;10652;50.306;8.570;2024-02-21T19:59:50;5.15;;;2.80;;
20986;SDS011;10652;50.306;8.570;2024-02-21T20:03:53;7.95;;;2.85;;
20986;SDS011;10652;50.306;8.570;2024-02-21T20:07:55;5.97;;;3.10;;
20986;SDS011;10652;50.306;8.570;2024-02-21T20:11:58;8.13;;;3.30;;
20986;SDS011;10652;50.306;8.570;2024-02-21T20:16:01;5.93;;;3.00;;
20986;SDS011;10652;50.306;8.570;2024-02-21T20:20:03;5.15;;;2.95;;
20986;SDS011;10652;50.306;8.570;2024-02-21T20:24:08;6.70;;;3.22;;
20986;SDS011;10652;50.306;8.570;2024-02-21T20:28:13;5.82;;;3.60;;
20986;SDS011;10652;50.306;8.570;2024-02-21T20:32:16;6.10;;;3.30;;
20986;SDS011;10652;50.306;8.570;2024-02-21T20:36:18;7.43;;;3.00;;
20986;SDS011;10652;50.306;8.570;2024-02-21T20:40:21;7.80;;;3.33;;
20986;SDS011;10652;50.306;8.570;2024-02-21T20:44:23;5.78;;;3.25;;
20986;SDS011;10652;50.306;8.570;2024-02-21T20:48:28;7.05;;;3.30;;
20986;SDS011;10652;50.306;8.570;2024-02-21T20:52:32;12.75;;;3.67;;
20986;SDS011;10652;50.306;8.570;2024-02-21T20:56:35;8.23;;;3.50;;
20986;SDS011;10652;50.306;8.570;2024-02-21T21:00:38;6.35;;;3.60;;
20986;SDS011;10652;50.306;8.570;2024-02-21T21:04:40;5.07;;;3.22;;
20986;SDS011;10652;50.306;8.570;2024-02-21T21:08:42;6.40;;;3.55;;
20986;SDS011;10652;50.306;8.570;2024-02-21T21:12:44;8.88;;;3.70;;
20986;SDS011;10652;50.306;8.570;2024-02-21T21:16:46;10.07;;;4.18;;
20986;SDS011;10652;50.306;8.570;2024-02-21T21:20:49;7.32;;;3.83;;
20986;SDS011;10652;50.306;8.570;2024-02-21T21:24:51;9.77;;;3.90;;
20986;SDS011;10652;50.306;8.570;2024-02-21T21:28:54;6.60;;;2.97;;
20986;SDS011;10652;50.306;8.570;2024-02-21T21:32:58;8.13;;;3.65;;
20986;SDS011;10652;50.306;8.570;2024-02-21T21:37:04;7.03;;;3.92;;
20986;SDS011;10652;50.306;8.570;2024-02-21T21:41:06;6.97;;;3.70;;
20986;SDS011;10652;50.306;8.570;2024-02-21T21:45:09;6.13;;;3.88;;
20986;SDS011;10652;50.306;8.570;2024-02-21T21:49:11;5.75;;;3.85;;
20986;SDS011;10652;50.306;8.570;2024-02-21T21:53:13;7.93;;;4.28;;
20986;SDS011;10652;50.306;8.570;2024-02-21T21:57:16;5.15;;;3.33;;
20986;SDS011;10652;50.306;8.570;2024-02-21T22:01:18;4.60;;;3.20;;
20986;SDS011;10652;50.306;8.570;2024-02-21T22:05:20;5.63;;;3.13;;
20986;SDS011;10652;50.306;8.570;2024-02-21T22:09:23;4.80;;;3.13;;
20986;SDS011;10652;50.306;8.570;2024-02-21T22:13:25;6.40;;;3.20;;
20986;SDS011;10652;50.306;8.570;2024-02-21T22:17:27;7.18;;;2.78;;
20986;SDS011;10652;50.306;8.570;2024-02-21T22:21:29;6.32;;;3.03;;
20986;SDS011;10652;50.306;8.570;2024-02-21T22:25:32;5.07;;;2.80;;
20986;SDS011;10652;50.306;8.570;2024-02-21T22:29:34;5.63;;;2.72;;
20986;SDS011;10652;50.306;8.570;2024-02-21T22:33:40;4.80;;;2.60;;
20986;SDS011;10652;50.306;8.570;2024-02-21T22:37:42;3.20;;;2.28;;
20986;SDS011;10652;50.306;8.570;2024-02-21T22:41:45;2.97;;;1.63;;
20986;SDS011;10652;50.306;8.570;2024-02-21T22:45:47;2.65;;;1.80;;
20986;SDS011;10652;50.306;8.570;2024-02-21T22:49:51;2.25;;;1.63;;
20986;SDS011;10652;50.306;8.570;2024-02-21T22:53:53;1.88;;;1.73;;
20986;SDS011;10652;50.306;8.570;2024-02-21T22:57:56;1.73;;;1.63;;
20986;SDS011;10652;50.306;8.570;2024-02-21T23:01:58;3.13;;;1.70;;
20986;SDS011;10652;50.306;8.570;2024-02-21T23:06:00;2.63;;;1.52;;
20986;SDS011;10652;50.306;8.570;2024-02-21T23:10:03;1.60;;;1.20;;
20986;SDS011;10652;50.306;8.570;2024-02-21T23:14:06;2.75;;;1.50;;
20986;SDS011;10652;50.306;8.570;2024-02-21T23:18:08;1.83;;;1.42;;
20986;SDS011;10652;50.306;8.570;2024-02-21T23:22:11;2.85;;;1.50;;
20986;SDS011;10652;50.306;8.570;2024-02-21T23:26:13;2.05;;;1.40;;
20986;SDS011;10652;50.306;8.570;2024-02-21T23:30:15;1.35;;;1.20;;
20986;SDS011;10652;50.306;8.570;2024-02-21T23:34:17;1.83;;;1.20;;
20986;SDS011;10652;50.306;8.570;2024-02-21T23:38:20;1.58;;;1.20;;
20986;SDS011;10652;50.306;8.570;2024-02-21T23:42:22;2.53;;;1.40;;
20986;SDS011;10652;50.306;8.570;2024-02-21T23:46:24;2.05;;;1.20;;
20986;SDS011;10652;50.306;8.570;2024-02-21T23:50:26;1.20;;;1.10;;
20986;SDS011;10652;50.306;8.570;2024-02-21T23:54:28;1.20;;;1.10;;
20986;SDS011;10652;50.306;8.570;2024-02-21T23:58:31;1.60;;;1.02;;
